Terminal Aerodrome Forecast
Issued by NWS

Home | Current Version | Previous Version | Text Only | Print | Product List | Glossary On
Versions: 1 2 3 4 5 6 7 8 9 10 11 12 13 14 15
000
FTUS44 KTSA 311100
TAFBVO
TAF
KBVO 311120Z 3112/0112 02005KT 6SM BR OVC022
     FM311400 07005KT P6SM BKN025
     FM311700 10004KT P6SM BKN050
     FM010000 VRB03KT P6SM BKN250=

USA.gov is the U.S. government's official web portal to all federal, state and local government web resources and services.